sensor_id;sensor_type;location;lat;lon;timestamp;P1;durP1;ratioP1;P2;durP2;ratioP2
40931;SDS011;36257;46.052;12.540;2023-11-21T00:01:02;23.92;;;17.65;;
40931;SDS011;36257;46.052;12.540;2023-11-21T00:03:29;18.98;;;11.98;;
40931;SDS011;36257;46.052;12.540;2023-11-21T00:05:55;14.95;;;11.73;;
40931;SDS011;36257;46.052;12.540;2023-11-21T00:08:21;14.60;;;11.82;;
40931;SDS011;36257;46.052;12.540;2023-11-21T00:10:46;13.25;;;11.52;;
40931;SDS011;36257;46.052;12.540;2023-11-21T00:13:13;12.05;;;10.85;;
40931;SDS011;36257;46.052;12.540;2023-11-21T00:15:39;11.65;;;10.43;;
40931;SDS011;36257;46.052;12.540;2023-11-21T00:18:05;13.77;;;11.18;;
40931;SDS011;36257;46.052;12.540;2023-11-21T00:20:31;13.48;;;11.07;;
40931;SDS011;36257;46.052;12.540;2023-11-21T00:22:57;11.25;;;10.15;;
40931;SDS011;36257;46.052;12.540;2023-11-21T00:25:22;14.70;;;11.07;;
40931;SDS011;36257;46.052;12.540;2023-11-21T00:27:50;12.63;;;10.43;;
40931;SDS011;36257;46.052;12.540;2023-11-21T00:30:16;14.60;;;9.52;;
40931;SDS011;36257;46.052;12.540;2023-11-21T00:32:41;9.65;;;8.80;;
40931;SDS011;36257;46.052;12.540;2023-11-21T00:35:08;15.10;;;10.25;;
40931;SDS011;36257;46.052;12.540;2023-11-21T00:37:34;12.32;;;8.93;;
40931;SDS011;36257;46.052;12.540;2023-11-21T00:39:59;11.98;;;9.52;;
40931;SDS011;36257;46.052;12.540;2023-11-21T00:42:27;10.55;;;8.48;;
40931;SDS011;36257;46.052;12.540;2023-11-21T00:44:53;10.48;;;9.10;;
40931;SDS011;36257;46.052;12.540;2023-11-21T00:47:18;10.05;;;8.73;;
40931;SDS011;36257;46.052;12.540;2023-11-21T00:49:44;12.25;;;9.32;;
40931;SDS011;36257;46.052;12.540;2023-11-21T00:52:10;12.68;;;8.75;;
40931;SDS011;36257;46.052;12.540;2023-11-21T00:54:35;10.50;;;8.25;;
40931;SDS011;36257;46.052;12.540;2023-11-21T00:57:01;11.35;;;9.65;;
40931;SDS011;36257;46.052;12.540;2023-11-21T00:59:26;11.70;;;9.15;;
40931;SDS011;36257;46.052;12.540;2023-11-21T01:01:52;11.52;;;10.20;;
40931;SDS011;36257;46.052;12.540;2023-11-21T01:04:19;10.40;;;8.55;;
40931;SDS011;36257;46.052;12.540;2023-11-21T01:06:44;9.30;;;7.72;;
40931;SDS011;36257;46.052;12.540;2023-11-21T01:09:10;8.93;;;8.02;;
40931;SDS011;36257;46.052;12.540;2023-11-21T01:11:36;8.82;;;7.57;;
40931;SDS011;36257;46.052;12.540;2023-11-21T01:14:02;8.25;;;7.28;;
40931;SDS011;36257;46.052;12.540;2023-11-21T01:16:29;9.88;;;7.32;;
40931;SDS011;36257;46.052;12.540;2023-11-21T01:18:56;11.40;;;7.75;;
40931;SDS011;36257;46.052;12.540;2023-11-21T01:21:22;13.35;;;8.82;;
40931;SDS011;36257;46.052;12.540;2023-11-21T01:23:47;11.63;;;8.38;;
40931;SDS011;36257;46.052;12.540;2023-11-21T01:26:13;8.60;;;7.25;;
40931;SDS011;36257;46.052;12.540;2023-11-21T01:28:39;10.27;;;7.93;;
40931;SDS011;36257;46.052;12.540;2023-11-21T01:31:04;8.65;;;7.15;;
40931;SDS011;36257;46.052;12.540;2023-11-21T01:33:32;9.82;;;8.40;;
40931;SDS011;36257;46.052;12.540;2023-11-21T01:35:58;9.48;;;7.22;;
40931;SDS011;36257;46.052;12.540;2023-11-21T01:38:24;9.18;;;7.20;;
40931;SDS011;36257;46.052;12.540;2023-11-21T01:40:50;8.50;;;7.13;;
40931;SDS011;36257;46.052;12.540;2023-11-21T01:43:16;10.60;;;7.15;;
40931;SDS011;36257;46.052;12.540;2023-11-21T01:45:42;9.95;;;7.38;;
40931;SDS011;36257;46.052;12.540;2023-11-21T01:48:08;9.00;;;7.03;;
40931;SDS011;36257;46.052;12.540;2023-11-21T01:50:34;7.97;;;7.13;;
40931;SDS011;36257;46.052;12.540;2023-11-21T01:53:00;7.18;;;6.20;;
40931;SDS011;36257;46.052;12.540;2023-11-21T01:55:26;8.00;;;7.28;;
40931;SDS011;36257;46.052;12.540;2023-11-21T01:57:53;7.93;;;6.35;;
40931;SDS011;36257;46.052;12.540;2023-11-21T02:00:21;8.15;;;6.95;;
40931;SDS011;36257;46.052;12.540;2023-11-21T02:02:48;7.68;;;6.82;;
40931;SDS011;36257;46.052;12.540;2023-11-21T02:05:14;6.95;;;6.25;;
40931;SDS011;36257;46.052;12.540;2023-11-21T02:07:43;7.45;;;6.75;;
40931;SDS011;36257;46.052;12.540;2023-11-21T02:10:09;11.65;;;8.07;;
40931;SDS011;36257;46.052;12.540;2023-11-21T02:12:39;7.85;;;6.95;;
40931;SDS011;36257;46.052;12.540;2023-11-21T02:15:07;10.48;;;7.78;;
40931;SDS011;36257;46.052;12.540;2023-11-21T02:17:40;7.63;;;6.82;;
40931;SDS011;36257;46.052;12.540;2023-11-21T02:20:10;8.02;;;7.18;;
40931;SDS011;36257;46.052;12.540;2023-11-21T02:22:40;9.18;;;7.70;;
40931;SDS011;36257;46.052;12.540;2023-11-21T02:25:07;9.35;;;8.43;;
40931;SDS011;36257;46.052;12.540;2023-11-21T02:27:33;10.57;;;7.80;;
40931;SDS011;36257;46.052;12.540;2023-11-21T02:29:59;9.35;;;7.07;;
40931;SDS011;36257;46.052;12.540;2023-11-21T02:32:26;8.90;;;6.90;;
40931;SDS011;36257;46.052;12.540;2023-11-21T02:34:51;7.32;;;6.57;;
40931;SDS011;36257;46.052;12.540;2023-11-21T02:37:21;6.97;;;6.03;;
40931;SDS011;36257;46.052;12.540;2023-11-21T02:39:46;8.63;;;5.70;;
40931;SDS011;36257;46.052;12.540;2023-11-21T02:42:12;6.55;;;5.10;;
40931;SDS011;36257;46.052;12.540;2023-11-21T02:44:38;7.88;;;5.47;;
40931;SDS011;36257;46.052;12.540;2023-11-21T02:47:03;6.68;;;4.70;;
40931;SDS011;36257;46.052;12.540;2023-11-21T02:49:29;9.85;;;4.57;;
40931;SDS011;36257;46.052;12.540;2023-11-21T02:51:55;5.78;;;4.68;;
40931;SDS011;36257;46.052;12.540;2023-11-21T02:54:21;10.70;;;7.80;;
40931;SDS011;36257;46.052;12.540;2023-11-21T02:56:47;13.35;;;8.07;;
40931;SDS011;36257;46.052;12.540;2023-11-21T02:59:14;11.15;;;8.65;;
40931;SDS011;36257;46.052;12.540;2023-11-21T03:01:40;14.38;;;9.13;;
40931;SDS011;36257;46.052;12.540;2023-11-21T03:04:06;12.60;;;7.03;;
40931;SDS011;36257;46.052;12.540;2023-11-21T03:06:32;5.78;;;5.28;;
40931;SDS011;36257;46.052;12.540;2023-11-21T03:08:58;4.60;;;4.22;;
40931;SDS011;36257;46.052;12.540;2023-11-21T03:11:24;4.88;;;4.50;;
40931;SDS011;36257;46.052;12.540;2023-11-21T03:13:50;7.18;;;4.38;;
40931;SDS011;36257;46.052;12.540;2023-11-21T03:16:16;4.82;;;4.38;;
40931;SDS011;36257;46.052;12.540;2023-11-21T03:18:41;5.45;;;4.97;;
40931;SDS011;36257;46.052;12.540;2023-11-21T03:21:08;4.32;;;3.97;;
40931;SDS011;36257;46.052;12.540;2023-11-21T03:23:34;5.32;;;4.38;;
40931;SDS011;36257;46.052;12.540;2023-11-21T03:26:00;6.20;;;5.47;;
40931;SDS011;36257;46.052;12.540;2023-11-21T03:28:26;4.93;;;3.60;;
40931;SDS011;36257;46.052;12.540;2023-11-21T03:30:52;4.50;;;4.05;;
40931;SDS011;36257;46.052;12.540;2023-11-21T03:33:18;4.90;;;4.22;;
40931;SDS011;36257;46.052;12.540;2023-11-21T03:35:44;5.10;;;4.28;;
40931;SDS011;36257;46.052;12.540;2023-11-21T03:38:09;5.07;;;3.97;;
40931;SDS011;36257;46.052;12.540;2023-11-21T03:40:35;6.93;;;3.83;;
40931;SDS011;36257;46.052;12.540;2023-11-21T03:43:01;11.52;;;4.75;;
40931;SDS011;36257;46.052;12.540;2023-11-21T03:45:27;4.85;;;3.50;;
40931;SDS011;36257;46.052;12.540;2023-11-21T03:47:52;3.65;;;3.35;;
40931;SDS011;36257;46.052;12.540;2023-11-21T03:50:18;4.18;;;3.88;;
40931;SDS011;36257;46.052;12.540;2023-11-21T03:52:44;4.60;;;4.20;;
40931;SDS011;36257;46.052;12.540;2023-11-21T03:55:09;4.45;;;4.05;;
40931;SDS011;36257;46.052;12.540;2023-11-21T03:57:35;5.05;;;3.33;;
40931;SDS011;36257;46.052;12.540;2023-11-21T04:00:01;4.05;;;3.28;;
40931;SDS011;36257;46.052;12.540;2023-11-21T04:02:29;3.28;;;3.08;;
40931;SDS011;36257;46.052;12.540;2023-11-21T04:04:56;4.13;;;3.75;;
40931;SDS011;36257;46.052;12.540;2023-11-21T04:07:22;3.40;;;3.10;;
40931;SDS011;36257;46.052;12.540;2023-11-21T04:09:48;4.40;;;4.00;;
40931;SDS011;36257;46.052;12.540;2023-11-21T04:12:13;3.90;;;3.60;;
40931;SDS011;36257;46.052;12.540;2023-11-21T04:14:39;3.75;;;3.45;;
40931;SDS011;36257;46.052;12.540;2023-11-21T04:17:05;4.90;;;4.40;;
40931;SDS011;36257;46.052;12.540;2023-11-21T04:19:30;4.35;;;4.00;;
40931;SDS011;36257;46.052;12.540;2023-11-21T04:21:56;4.45;;;3.53;;
40931;SDS011;36257;46.052;12.540;2023-11-21T04:24:22;3.95;;;3.65;;
40931;SDS011;36257;46.052;12.540;2023-11-21T04:26:47;4.72;;;3.47;;
40931;SDS011;36257;46.052;12.540;2023-11-21T04:29:13;3.75;;;3.40;;
40931;SDS011;36257;46.052;12.540;2023-11-21T04:31:38;3.30;;;3.00;;
40931;SDS011;36257;46.052;12.540;2023-11-21T04:34:04;4.10;;;3.80;;
40931;SDS011;36257;46.052;12.540;2023-11-21T04:36:30;3.72;;;3.42;;
40931;SDS011;36257;46.052;12.540;2023-11-21T04:38:56;3.88;;;3.58;;
40931;SDS011;36257;46.052;12.540;2023-11-21T04:41:22;4.38;;;4.07;;
40931;SDS011;36257;46.052;12.540;2023-11-21T04:43:47;3.55;;;3.25;;
40931;SDS011;36257;46.052;12.540;2023-11-21T04:46:14;6.07;;;3.67;;
40931;SDS011;36257;46.052;12.540;2023-11-21T04:48:40;3.75;;;3.45;;
40931;SDS011;36257;46.052;12.540;2023-11-21T04:51:05;3.30;;;3.10;;
40931;SDS011;36257;46.052;12.540;2023-11-21T04:53:31;3.50;;;3.20;;
40931;SDS011;36257;46.052;12.540;2023-11-21T04:55:57;6.00;;;3.75;;
40931;SDS011;36257;46.052;12.540;2023-11-21T04:58:23;3.25;;;3.05;;
40931;SDS011;36257;46.052;12.540;2023-11-21T05:00:49;5.57;;;2.97;;
40931;SDS011;36257;46.052;12.540;2023-11-21T05:03:15;3.38;;;3.08;;
40931;SDS011;36257;46.052;12.540;2023-11-21T05:05:40;3.90;;;3.53;;
40931;SDS011;36257;46.052;12.540;2023-11-21T05:08:06;4.15;;;3.85;;
40931;SDS011;36257;46.052;12.540;2023-11-21T05:10:31;4.05;;;3.75;;
40931;SDS011;36257;46.052;12.540;2023-11-21T05:12:57;3.83;;;3.10;;
40931;SDS011;36257;46.052;12.540;2023-11-21T05:15:23;3.45;;;2.85;;
40931;SDS011;36257;46.052;12.540;2023-11-21T05:17:49;4.10;;;3.70;;
40931;SDS011;36257;46.052;12.540;2023-11-21T05:20:17;4.10;;;3.80;;
40931;SDS011;36257;46.052;12.540;2023-11-21T05:22:45;4.13;;;3.55;;
40931;SDS011;36257;46.052;12.540;2023-11-21T05:25:14;4.00;;;3.55;;
40931;SDS011;36257;46.052;12.540;2023-11-21T05:27:40;4.22;;;3.92;;
40931;SDS011;36257;46.052;12.540;2023-11-21T05:30:06;4.15;;;3.75;;
40931;SDS011;36257;46.052;12.540;2023-11-21T05:32:34;4.90;;;4.50;;
40931;SDS011;36257;46.052;12.540;2023-11-21T05:35:00;6.15;;;4.43;;
40931;SDS011;36257;46.052;12.540;2023-11-21T05:37:26;6.47;;;4.22;;
40931;SDS011;36257;46.052;12.540;2023-11-21T05:39:55;6.40;;;5.03;;
40931;SDS011;36257;46.052;12.540;2023-11-21T05:42:29;4.72;;;3.67;;
40931;SDS011;36257;46.052;12.540;2023-11-21T05:44:56;5.53;;;5.03;;
40931;SDS011;36257;46.052;12.540;2023-11-21T05:47:24;4.22;;;3.80;;
40931;SDS011;36257;46.052;12.540;2023-11-21T05:49:51;4.68;;;4.15;;
40931;SDS011;36257;46.052;12.540;2023-11-21T05:52:17;6.03;;;3.95;;
40931;SDS011;36257;46.052;12.540;2023-11-21T05:54:43;5.63;;;4.55;;
40931;SDS011;36257;46.052;12.540;2023-11-21T05:57:08;6.65;;;5.72;;
40931;SDS011;36257;46.052;12.540;2023-11-21T05:59:34;9.25;;;5.25;;
40931;SDS011;36257;46.052;12.540;2023-11-21T06:02:00;6.82;;;5.90;;
40931;SDS011;36257;46.052;12.540;2023-11-21T06:04:27;7.03;;;6.32;;
40931;SDS011;36257;46.052;12.540;2023-11-21T06:06:52;6.65;;;5.93;;
40931;SDS011;36257;46.052;12.540;2023-11-21T06:09:18;11.43;;;7.72;;
40931;SDS011;36257;46.052;12.540;2023-11-21T06:11:44;7.07;;;6.47;;
40931;SDS011;36257;46.052;12.540;2023-11-21T06:14:10;6.28;;;5.55;;
40931;SDS011;36257;46.052;12.540;2023-11-21T06:16:36;4.28;;;3.97;;
40931;SDS011;36257;46.052;12.540;2023-11-21T06:19:01;4.30;;;3.90;;
40931;SDS011;36257;46.052;12.540;2023-11-21T06:21:27;4.35;;;4.05;;
40931;SDS011;36257;46.052;12.540;2023-11-21T06:23:53;4.28;;;3.95;;
40931;SDS011;36257;46.052;12.540;2023-11-21T06:26:22;4.45;;;3.45;;
40931;SDS011;36257;46.052;12.540;2023-11-21T06:28:47;3.85;;;2.95;;
40931;SDS011;36257;46.052;12.540;2023-11-21T06:31:16;4.25;;;3.95;;
40931;SDS011;36257;46.052;12.540;2023-11-21T06:33:42;4.17;;;3.63;;
40931;SDS011;36257;46.052;12.540;2023-11-21T06:36:08;5.63;;;3.75;;
40931;SDS011;36257;46.052;12.540;2023-11-21T06:38:36;4.90;;;3.70;;
40931;SDS011;36257;46.052;12.540;2023-11-21T06:41:02;7.50;;;5.32;;
40931;SDS011;36257;46.052;12.540;2023-11-21T06:43:29;7.28;;;4.05;;
40931;SDS011;36257;46.052;12.540;2023-11-21T06:45:56;3.88;;;3.47;;
40931;SDS011;36257;46.052;12.540;2023-11-21T06:48:22;3.45;;;3.20;;
40931;SDS011;36257;46.052;12.540;2023-11-21T06:50:48;3.90;;;3.20;;
40931;SDS011;36257;46.052;12.540;2023-11-21T06:53:13;3.78;;;3.30;;
40931;SDS011;36257;46.052;12.540;2023-11-21T06:55:39;3.88;;;3.13;;
40931;SDS011;36257;46.052;12.540;2023-11-21T06:58:05;3.25;;;2.95;;
40931;SDS011;36257;46.052;12.540;2023-11-21T07:00:31;3.80;;;3.40;;
40931;SDS011;36257;46.052;12.540;2023-11-21T07:02:56;4.32;;;3.72;;
40931;SDS011;36257;46.052;12.540;2023-11-21T07:05:22;4.30;;;3.83;;
40931;SDS011;36257;46.052;12.540;2023-11-21T07:07:48;5.38;;;4.00;;
40931;SDS011;36257;46.052;12.540;2023-11-21T07:10:15;5.23;;;3.63;;
40931;SDS011;36257;46.052;12.540;2023-11-21T07:12:41;5.85;;;4.30;;
40931;SDS011;36257;46.052;12.540;2023-11-21T07:15:07;4.90;;;4.15;;
40931;SDS011;36257;46.052;12.540;2023-11-21T07:17:36;4.43;;;3.72;;
40931;SDS011;36257;46.052;12.540;2023-11-21T07:20:02;5.85;;;4.55;;
40931;SDS011;36257;46.052;12.540;2023-11-21T07:22:28;4.85;;;4.43;;
40931;SDS011;36257;46.052;12.540;2023-11-21T07:24:54;4.10;;;3.70;;
40931;SDS011;36257;46.052;12.540;2023-11-21T07:40:59;13.90;;;7.00;;
40931;SDS011;36257;46.052;12.540;2023-11-21T07:43:26;8.80;;;6.28;;
40931;SDS011;36257;46.052;12.540;2023-11-21T07:46:00;11.32;;;6.45;;
40931;SDS011;36257;46.052;12.540;2023-11-21T07:50:53;9.98;;;6.22;;
40931;SDS011;36257;46.052;12.540;2023-11-21T07:53:19;7.32;;;6.43;;
40931;SDS011;36257;46.052;12.540;2023-11-21T07:55:45;8.00;;;5.70;;
40931;SDS011;36257;46.052;12.540;2023-11-21T07:58:12;7.78;;;5.97;;
40931;SDS011;36257;46.052;12.540;2023-11-21T08:00:38;12.63;;;6.93;;
40931;SDS011;36257;46.052;12.540;2023-11-21T08:03:04;6.07;;;5.13;;
40931;SDS011;36257;46.052;12.540;2023-11-21T08:05:30;8.18;;;6.13;;
40931;SDS011;36257;46.052;12.540;2023-11-21T08:07:57;7.65;;;6.65;;
40931;SDS011;36257;46.052;12.540;2023-11-21T08:10:22;8.10;;;6.35;;
40931;SDS011;36257;46.052;12.540;2023-11-21T08:12:48;10.82;;;8.35;;
40931;SDS011;36257;46.052;12.540;2023-11-21T08:15:15;22.35;;;13.75;;
40931;SDS011;36257;46.052;12.540;2023-11-21T08:17:41;20.27;;;13.00;;
40931;SDS011;36257;46.052;12.540;2023-11-21T08:20:07;19.90;;;14.00;;
40931;SDS011;36257;46.052;12.540;2023-11-21T08:22:35;11.85;;;7.03;;
40931;SDS011;36257;46.052;12.540;2023-11-21T08:25:01;8.25;;;3.90;;
40931;SDS011;36257;46.052;12.540;2023-11-21T08:27:29;3.75;;;3.35;;
40931;SDS011;36257;46.052;12.540;2023-11-21T08:29:54;4.82;;;2.85;;
40931;SDS011;36257;46.052;12.540;2023-11-21T08:32:21;3.58;;;2.78;;
40931;SDS011;36257;46.052;12.540;2023-11-21T08:37:53;5.10;;;2.97;;
40931;SDS011;36257;46.052;12.540;2023-11-21T11:03:08;1.58;;;1.48;;
40931;SDS011;36257;46.052;12.540;2023-11-21T11:05:39;3.05;;;1.40;;
40931;SDS011;36257;46.052;12.540;2023-11-21T11:08:11;1.75;;;1.65;;
40931;SDS011;36257;46.052;12.540;2023-11-21T11:10:37;3.10;;;1.95;;
40931;SDS011;36257;46.052;12.540;2023-11-21T11:13:03;1.73;;;1.63;;
40931;SDS011;36257;46.052;12.540;2023-11-21T11:15:31;2.42;;;1.60;;
40931;SDS011;36257;46.052;12.540;2023-11-21T11:17:58;1.50;;;1.40;;
40931;SDS011;36257;46.052;12.540;2023-11-21T11:20:25;1.98;;;1.80;;
40931;SDS011;36257;46.052;12.540;2023-11-21T11:36:51;1.75;;;1.65;;
40931;SDS011;36257;46.052;12.540;2023-11-21T11:39:27;1.17;;;1.02;;
40931;SDS011;36257;46.052;12.540;2023-11-21T11:42:13;1.75;;;1.65;;
40931;SDS011;36257;46.052;12.540;2023-11-21T11:47:30;1.70;;;1.38;;
40931;SDS011;36257;46.052;12.540;2023-11-21T11:50:03;0.93;;;0.93;;
40931;SDS011;36257;46.052;12.540;2023-11-21T11:55:14;1.00;;;1.00;;
40931;SDS011;36257;46.052;12.540;2023-11-21T11:57:44;1.65;;;1.10;;
40931;SDS011;36257;46.052;12.540;2023-11-21T12:00:19;1.13;;;0.90;;
40931;SDS011;36257;46.052;12.540;2023-11-21T12:02:53;2.38;;;1.00;;
40931;SDS011;36257;46.052;12.540;2023-11-21T12:13:08;0.85;;;0.80;;
40931;SDS011;36257;46.052;12.540;2023-11-21T12:15:38;1.65;;;1.10;;
40931;SDS011;36257;46.052;12.540;2023-11-21T12:20:32;1.13;;;1.02;;
40931;SDS011;36257;46.052;12.540;2023-11-21T12:23:03;1.40;;;1.15;;
40931;SDS011;36257;46.052;12.540;2023-11-21T12:25:30;1.20;;;1.10;;
40931;SDS011;36257;46.052;12.540;2023-11-21T12:27:58;1.67;;;1.25;;
40931;SDS011;36257;46.052;12.540;2023-11-21T12:30:26;1.30;;;1.20;;
40931;SDS011;36257;46.052;12.540;2023-11-21T12:32:55;1.75;;;1.20;;
40931;SDS011;36257;46.052;12.540;2023-11-21T12:35:23;1.27;;;1.17;;
40931;SDS011;36257;46.052;12.540;2023-11-21T12:37:51;1.00;;;1.00;;
40931;SDS011;36257;46.052;12.540;2023-11-21T12:40:17;1.60;;;1.50;;
40931;SDS011;36257;46.052;12.540;2023-11-21T12:42:47;1.20;;;1.10;;
40931;SDS011;36257;46.052;12.540;2023-11-21T12:47:51;1.48;;;1.38;;
40931;SDS011;36257;46.052;12.540;2023-11-21T12:50:23;1.25;;;1.08;;
40931;SDS011;36257;46.052;12.540;2023-11-21T12:52:53;1.40;;;1.30;;
40931;SDS011;36257;46.052;12.540;2023-11-21T12:55:23;4.72;;;2.10;;
40931;SDS011;36257;46.052;12.540;2023-11-21T12:57:54;2.65;;;2.15;;
40931;SDS011;36257;46.052;12.540;2023-11-21T13:00:28;2.75;;;1.80;;
40931;SDS011;36257;46.052;12.540;2023-11-21T13:02:58;2.00;;;1.80;;
40931;SDS011;36257;46.052;12.540;2023-11-21T13:07:50;2.10;;;1.90;;
40931;SDS011;36257;46.052;12.540;2023-11-21T13:10:19;2.47;;;1.70;;
40931;SDS011;36257;46.052;12.540;2023-11-21T13:12:59;2.23;;;1.70;;
40931;SDS011;36257;46.052;12.540;2023-11-21T13:15:29;2.22;;;2.03;;
40931;SDS011;36257;46.052;12.540;2023-11-21T13:17:56;1.70;;;1.60;;
40931;SDS011;36257;46.052;12.540;2023-11-21T13:20:23;2.03;;;1.77;;
40931;SDS011;36257;46.052;12.540;2023-11-21T13:22:53;2.35;;;1.92;;
40931;SDS011;36257;46.052;12.540;2023-11-21T13:25:33;1.98;;;1.88;;
40931;SDS011;36257;46.052;12.540;2023-11-21T13:27:59;1.92;;;1.77;;
40931;SDS011;36257;46.052;12.540;2023-11-21T13:30:28;2.15;;;1.80;;
40931;SDS011;36257;46.052;12.540;2023-11-21T13:33:01;1.58;;;1.50;;
40931;SDS011;36257;46.052;12.540;2023-11-21T13:35:35;1.75;;;1.65;;
40931;SDS011;36257;46.052;12.540;2023-11-21T13:38:06;2.05;;;1.85;;
40931;SDS011;36257;46.052;12.540;2023-11-21T13:40:34;2.53;;;1.60;;
40931;SDS011;36257;46.052;12.540;2023-11-21T13:43:15;3.97;;;1.77;;
40931;SDS011;36257;46.052;12.540;2023-11-21T13:45:43;4.00;;;1.70;;
40931;SDS011;36257;46.052;12.540;2023-11-21T13:48:11;2.08;;;1.88;;
40931;SDS011;36257;46.052;12.540;2023-11-21T13:50:50;3.40;;;1.63;;
40931;SDS011;36257;46.052;12.540;2023-11-21T13:53:23;2.25;;;2.13;;
40931;SDS011;36257;46.052;12.540;2023-11-21T13:55:50;4.07;;;1.90;;
40931;SDS011;36257;46.052;12.540;2023-11-21T13:58:19;3.65;;;2.13;;
40931;SDS011;36257;46.052;12.540;2023-11-21T14:00:57;2.47;;;2.28;;
40931;SDS011;36257;46.052;12.540;2023-11-21T14:03:23;2.35;;;2.08;;
40931;SDS011;36257;46.052;12.540;2023-11-21T14:05:57;3.20;;;2.38;;
40931;SDS011;36257;46.052;12.540;2023-11-21T14:08:25;3.38;;;2.60;;
40931;SDS011;36257;46.052;12.540;2023-11-21T14:10:57;2.60;;;2.38;;
40931;SDS011;36257;46.052;12.540;2023-11-21T14:13:25;2.83;;;2.42;;
40931;SDS011;36257;46.052;12.540;2023-11-21T14:15:52;1.98;;;1.73;;
40931;SDS011;36257;46.052;12.540;2023-11-21T14:18:26;2.28;;;1.98;;
40931;SDS011;36257;46.052;12.540;2023-11-21T14:21:15;2.28;;;2.05;;
40931;SDS011;36257;46.052;12.540;2023-11-21T14:23:41;3.22;;;1.80;;
40931;SDS011;36257;46.052;12.540;2023-11-21T14:26:08;2.40;;;1.95;;
40931;SDS011;36257;46.052;12.540;2023-11-21T14:28:33;2.88;;;2.47;;
40931;SDS011;36257;46.052;12.540;2023-11-21T14:31:01;2.42;;;2.22;;
40931;SDS011;36257;46.052;12.540;2023-11-21T14:33:28;1.98;;;1.88;;
40931;SDS011;36257;46.052;12.540;2023-11-21T14:35:53;3.05;;;2.28;;
40931;SDS011;36257;46.052;12.540;2023-11-21T14:38:19;1.77;;;1.67;;
40931;SDS011;36257;46.052;12.540;2023-11-21T14:40:45;2.45;;;2.22;;
40931;SDS011;36257;46.052;12.540;2023-11-21T14:43:12;2.00;;;1.88;;
40931;SDS011;36257;46.052;12.540;2023-11-21T14:45:38;2.00;;;1.80;;
40931;SDS011;36257;46.052;12.540;2023-11-21T14:48:04;3.17;;;1.67;;
40931;SDS011;36257;46.052;12.540;2023-11-21T14:50:29;2.50;;;2.17;;
40931;SDS011;36257;46.052;12.540;2023-11-21T14:53:04;1.80;;;1.70;;
40931;SDS011;36257;46.052;12.540;2023-11-21T14:55:34;2.67;;;2.30;;
40931;SDS011;36257;46.052;12.540;2023-11-21T14:58:16;2.25;;;2.05;;
40931;SDS011;36257;46.052;12.540;2023-11-21T15:00:51;2.25;;;2.05;;
40931;SDS011;36257;46.052;12.540;2023-11-21T15:03:24;5.13;;;2.65;;
40931;SDS011;36257;46.052;12.540;2023-11-21T15:05:56;2.65;;;2.45;;
40931;SDS011;36257;46.052;12.540;2023-11-21T15:08:23;2.13;;;1.97;;
40931;SDS011;36257;46.052;12.540;2023-11-21T15:10:56;3.65;;;2.90;;
40931;SDS011;36257;46.052;12.540;2023-11-21T15:13:22;3.22;;;2.80;;
40931;SDS011;36257;46.052;12.540;2023-11-21T15:15:51;3.00;;;2.75;;
40931;SDS011;36257;46.052;12.540;2023-11-21T15:18:19;3.30;;;2.33;;
40931;SDS011;36257;46.052;12.540;2023-11-21T15:20:45;3.13;;;1.90;;
40931;SDS011;36257;46.052;12.540;2023-11-21T15:23:11;1.80;;;1.70;;
40931;SDS011;36257;46.052;12.540;2023-11-21T15:25:37;2.03;;;1.93;;
40931;SDS011;36257;46.052;12.540;2023-11-21T15:28:04;4.97;;;1.70;;
40931;SDS011;36257;46.052;12.540;2023-11-21T15:30:30;2.05;;;1.85;;
40931;SDS011;36257;46.052;12.540;2023-11-21T15:32:58;1.80;;;1.70;;
40931;SDS011;36257;46.052;12.540;2023-11-21T15:35:24;3.10;;;2.03;;
40931;SDS011;36257;46.052;12.540;2023-11-21T15:37:50;2.50;;;2.20;;
40931;SDS011;36257;46.052;12.540;2023-11-21T15:40:15;1.98;;;1.80;;
40931;SDS011;36257;46.052;12.540;2023-11-21T15:42:42;1.60;;;1.50;;
40931;SDS011;36257;46.052;12.540;2023-11-21T15:45:09;1.85;;;1.75;;
40931;SDS011;36257;46.052;12.540;2023-11-21T15:47:35;3.08;;;1.88;;
40931;SDS011;36257;46.052;12.540;2023-11-21T15:50:01;1.85;;;1.75;;
40931;SDS011;36257;46.052;12.540;2023-11-21T15:52:29;2.35;;;2.03;;
40931;SDS011;36257;46.052;12.540;2023-11-21T15:54:54;1.65;;;1.55;;
40931;SDS011;36257;46.052;12.540;2023-11-21T15:57:21;2.03;;;1.80;;
40931;SDS011;36257;46.052;12.540;2023-11-21T15:59:47;1.88;;;1.77;;
40931;SDS011;36257;46.052;12.540;2023-11-21T16:02:13;2.33;;;1.65;;
40931;SDS011;36257;46.052;12.540;2023-11-21T16:04:41;2.40;;;2.13;;
40931;SDS011;36257;46.052;12.540;2023-11-21T16:07:07;5.38;;;3.08;;
40931;SDS011;36257;46.052;12.540;2023-11-21T16:09:35;15.27;;;9.40;;
40931;SDS011;36257;46.052;12.540;2023-11-21T16:12:03;6.47;;;5.25;;
40931;SDS011;36257;46.052;12.540;2023-11-21T16:14:33;2.90;;;2.35;;
40931;SDS011;36257;46.052;12.540;2023-11-21T16:17:08;3.47;;;3.17;;
40931;SDS011;36257;46.052;12.540;2023-11-21T16:19:36;3.75;;;3.33;;
40931;SDS011;36257;46.052;12.540;2023-11-21T16:22:03;3.20;;;2.90;;
40931;SDS011;36257;46.052;12.540;2023-11-21T16:24:29;2.55;;;2.35;;
40931;SDS011;36257;46.052;12.540;2023-11-21T16:26:58;3.00;;;2.80;;
40931;SDS011;36257;46.052;12.540;2023-11-21T16:29:24;2.92;;;2.63;;
40931;SDS011;36257;46.052;12.540;2023-11-21T16:31:50;7.20;;;6.53;;
40931;SDS011;36257;46.052;12.540;2023-11-21T16:34:17;6.72;;;6.13;;
40931;SDS011;36257;46.052;12.540;2023-11-21T16:39:11;5.40;;;4.97;;
40931;SDS011;36257;46.052;12.540;2023-11-21T16:41:41;4.43;;;4.13;;
40931;SDS011;36257;46.052;12.540;2023-11-21T16:44:13;4.75;;;4.03;;
40931;SDS011;36257;46.052;12.540;2023-11-21T16:46:43;4.25;;;3.85;;
40931;SDS011;36257;46.052;12.540;2023-11-21T16:49:11;3.75;;;3.33;;
40931;SDS011;36257;46.052;12.540;2023-11-21T16:51:37;3.78;;;2.88;;
40931;SDS011;36257;46.052;12.540;2023-11-21T16:54:02;3.50;;;2.60;;
40931;SDS011;36257;46.052;12.540;2023-11-21T16:56:28;3.60;;;3.30;;
40931;SDS011;36257;46.052;12.540;2023-11-21T16:58:54;3.85;;;3.15;;
40931;SDS011;36257;46.052;12.540;2023-11-21T17:01:20;3.63;;;3.33;;
40931;SDS011;36257;46.052;12.540;2023-11-21T17:03:46;3.88;;;3.65;;
40931;SDS011;36257;46.052;12.540;2023-11-21T17:06:14;4.97;;;3.80;;
40931;SDS011;36257;46.052;12.540;2023-11-21T17:08:39;4.05;;;3.72;;
40931;SDS011;36257;46.052;12.540;2023-11-21T17:11:05;5.60;;;4.70;;
40931;SDS011;36257;46.052;12.540;2023-11-21T17:13:36;5.45;;;4.95;;
40931;SDS011;36257;46.052;12.540;2023-11-21T17:16:02;5.18;;;4.60;;
40931;SDS011;36257;46.052;12.540;2023-11-21T17:18:28;4.95;;;4.45;;
40931;SDS011;36257;46.052;12.540;2023-11-21T17:20:53;7.10;;;6.10;;
40931;SDS011;36257;46.052;12.540;2023-11-21T17:23:19;10.80;;;9.18;;
40931;SDS011;36257;46.052;12.540;2023-11-21T17:25:45;8.63;;;7.82;;
40931;SDS011;36257;46.052;12.540;2023-11-21T17:28:10;5.72;;;4.75;;
40931;SDS011;36257;46.052;12.540;2023-11-21T17:30:36;4.60;;;4.30;;
40931;SDS011;36257;46.052;12.540;2023-11-21T17:33:03;3.78;;;3.58;;
40931;SDS011;36257;46.052;12.540;2023-11-21T17:35:28;3.35;;;3.05;;
40931;SDS011;36257;46.052;12.540;2023-11-21T17:37:54;3.42;;;3.22;;
40931;SDS011;36257;46.052;12.540;2023-11-21T17:40:20;5.97;;;3.95;;
40931;SDS011;36257;46.052;12.540;2023-11-21T17:42:46;8.02;;;5.75;;
40931;SDS011;36257;46.052;12.540;2023-11-21T17:45:12;4.40;;;3.97;;
40931;SDS011;36257;46.052;12.540;2023-11-21T17:47:37;3.75;;;3.45;;
40931;SDS011;36257;46.052;12.540;2023-11-21T17:50:03;4.40;;;2.90;;